Time;durP1;ratioP1;P1;durP2;ratioP2;P2;SDS_P1;SDS_P2;PMS_P1;PMS_P2;Temp;Humidity;BMP_temperature;BMP_pressure;BME280_temperature;BME280_humidity;BME280_pressure;Samples;Min_cycle;Max_cycle;Signal;HPM_P1;HPM_P2
2022/11/04 00:01:52;;;;;;;13.40;12.02;;;;;;;10.39;99.34;100039.44;5039288;28;20086;-67
2022/11/04 00:04:18;;;;;;;12.43;11.20;;;;;;;10.38;98.91;100038.59;5034541;28;20163;-68
2022/11/04 00:06:45;;;;;;;14.90;11.93;;;;;;;10.34;98.76;100038.94;5053320;28;20488;-67
2022/11/04 00:09:14;;;;;;;11.45;10.25;;;;;;;10.33;98.40;100046.06;5027183;28;20025;-68
2022/11/04 00:14:23;;;;;;;11.57;10.35;;;;;;;10.32;97.49;100041.69;5053199;28;20051;-68
2022/11/04 00:33:51;;;;;;;9.85;8.85;;;;;;;10.00;96.75;100065.31;5034206;28;20039;-68
2022/11/04 00:36:17;;;;;;;12.70;9.38;;;;;;;9.98;97.09;100070.75;5047039;28;20444;-67
2022/11/04 00:38:43;;;;;;;11.52;9.77;;;;;;;10.00;97.08;100070.63;5034583;28;20127;-67
2022/11/04 00:41:29;;;;;;;15.30;8.52;;;;;;;9.90;97.38;100074.91;5030111;28;20503;-67
2022/11/04 00:43:57;;;;;;;11.20;8.18;;;;;;;9.88;97.22;100071.50;5032291;28;20017;-68
2022/11/04 00:46:23;;;;;;;10.00;9.00;;;;;;;9.82;96.59;100064.00;5042209;28;20025;-68
2022/11/04 00:48:51;;;;;;;11.70;8.98;;;;;;;9.85;97.54;100075.22;5051455;28;20102;-67
2022/11/04 00:51:17;;;;;;;13.75;9.57;;;;;;;9.80;97.23;100082.72;5031968;28;20038;-68
2022/11/04 00:53:42;;;;;;;12.57;9.13;;;;;;;9.77;97.10;100078.47;5039788;28;20033;-68
2022/11/04 00:56:07;;;;;;;11.57;9.10;;;;;;;9.75;96.34;100088.34;5036097;28;20041;-67
2022/11/04 00:58:33;;;;;;;11.07;9.73;;;;;;;9.76;96.70;100103.34;5030823;28;20116;-68
2022/11/04 01:00:58;;;;;;;10.68;9.57;;;;;;;9.76;96.28;100107.75;5029022;28;20095;-67
2022/11/04 01:03:23;;;;;;;10.13;9.07;;;;;;;9.70;96.19;100102.91;5033233;28;20114;-68
2022/11/04 01:05:49;;;;;;;11.88;10.55;;;;;;;9.66;96.30;100101.44;5038023;28;20041;-67
2022/11/04 01:08:14;;;;;;;13.70;10.63;;;;;;;9.65;95.94;100100.59;5037033;28;20477;-68
2022/11/04 01:10:43;;;;;;;12.30;9.95;;;;;;;9.66;96.44;100102.28;5046289;28;20049;-69
2022/11/04 01:13:12;;;;;;;12.35;10.55;;;;;;;9.64;96.77;100101.53;5035737;28;20111;-68
2022/11/04 01:15:38;;;;;;;;;;;;;;;9.69;95.87;100109.19;5045443;28;20488;-68
2022/11/04 01:18:07;;;;;;;12.35;11.05;;;;;;;9.55;96.91;100118.94;5032623;28;19919;-68
2022/11/04 01:20:32;;;;;;;14.65;11.38;;;;;;;9.57;96.36;100118.03;5030476;28;20029;-68
2022/11/04 01:23:00;;;;;;;13.25;11.60;;;;;;;9.55;97.14;100121.59;5030756;28;20049;-67
2022/11/04 01:25:26;;;;;;;12.48;10.80;;;;;;;9.57;97.66;100125.97;5022342;28;20055;-67
2022/11/04 01:27:54;;;;;;;13.30;11.45;;;;;;;9.57;97.29;100141.91;5041248;28;20544;-67
2022/11/04 01:30:19;;;;;;;15.18;11.32;;;;;;;9.62;97.22;100129.13;5013882;28;20064;-67
2022/11/04 01:32:45;;;;;;;16.75;11.07;;;;;;;9.60;97.88;100123.09;5049529;28;20037;-67
2022/11/04 01:35:11;;;;;;;16.92;11.07;;;;;;;9.60;97.79;100117.78;5032129;28;20041;-67
2022/11/04 01:37:38;;;;;;;12.57;10.48;;;;;;;9.60;97.86;100108.03;5034676;28;20052;-67
2022/11/04 01:40:05;;;;;;;13.98;10.85;;;;;;;9.61;97.82;100119.50;5022085;28;20100;-68
2022/11/04 01:42:30;;;;;;;12.15;10.52;;;;;;;9.57;97.54;100125.97;5050470;28;20036;-67
2022/11/04 01:44:59;;;;;;;13.32;10.00;;;;;;;9.52;97.51;100121.81;5013878;28;20021;-67
2022/11/04 01:47:43;;;;;;;14.55;9.55;;;;;;;9.50;97.26;100122.88;5032652;28;20120;-67
2022/11/04 01:50:18;;;;;;;13.05;8.75;;;;;;;9.48;97.57;100123.00;5039011;28;20025;-67
2022/11/04 01:52:52;;;;;;;11.95;9.15;;;;;;;9.41;97.62;100116.44;5036903;28;20032;-68
2022/11/04 01:55:25;;;;;;;13.95;8.75;;;;;;;9.32;97.40;100115.28;5024649;28;20464;-67
2022/11/04 01:57:54;;;;;;;11.23;8.18;;;;;;;9.33;97.14;100127.59;5041721;28;20372;-67
2022/11/04 02:00:20;;;;;;;10.98;7.18;;;;;;;9.33;97.20;100124.09;5045486;28;20029;-67
2022/11/04 02:03:12;;;;;;;10.00;7.63;;;;;;;9.35;97.00;100119.50;5031054;28;20036;-67
2022/11/04 02:05:38;;;;;;;8.10;7.25;;;;;;;9.29;96.69;100130.53;5031956;28;20091;-67
2022/11/04 02:08:08;;;;;;;11.93;7.88;;;;;;;9.16;97.20;100122.59;5045763;28;20048;-67
2022/11/04 02:10:39;;;;;;;10.40;7.10;;;;;;;9.19;97.05;100124.19;5034388;28;20074;-68
2022/11/04 02:13:04;;;;;;;11.50;7.05;;;;;;;9.15;96.37;100133.28;5037429;28;20064;-68
2022/11/04 02:15:39;;;;;;;8.85;6.75;;;;;;;9.08;97.02;100114.31;5033562;28;20060;-67
2022/11/04 02:18:18;;;;;;;10.75;6.93;;;;;;;9.14;96.60;100134.25;5030950;28;20025;-67
2022/11/04 02:20:56;;;;;;;9.23;6.10;;;;;;;9.12;96.99;100125.56;5034037;28;20080;-67
2022/11/04 02:24:07;;;;;;;16.27;6.70;;;;;;;9.16;96.76;100140.31;5031839;28;20061;-67
2022/11/04 02:27:01;;;;;;;9.07;6.25;;;;;;;9.10;96.79;100138.94;5038201;28;20080;-68
2022/11/04 02:29:54;;;;;;;9.75;5.78;;;;;;;9.04;96.38;100140.19;5047552;28;20033;-68
2022/11/04 02:32:40;;;;;;;14.57;5.20;;;;;;;8.98;96.18;100137.97;5039557;28;20025;-67
2022/11/04 02:35:37;;;;;;;9.55;5.70;;;;;;;8.94;96.81;100138.25;5049146;28;20492;-67
2022/11/04 02:38:15;;;;;;;9.05;5.68;;;;;;;8.92;97.14;100142.84;5046602;28;20488;-68
2022/11/04 02:40:55;;;;;;;8.95;5.47;;;;;;;8.91;97.55;100146.44;5034074;28;20032;-67
2022/11/04 02:43:28;;;;;;;7.43;4.70;;;;;;;8.93;96.62;100147.19;5042866;28;20029;-67
2022/11/04 02:46:08;;;;;;;9.82;4.82;;;;;;;8.89;96.67;100149.19;5044209;28;20017;-67
2022/11/04 02:48:44;;;;;;;13.65;5.35;;;;;;;8.87;96.66;100151.94;5050074;28;20024;-67
2022/11/04 02:51:12;;;;;;;6.90;4.95;;;;;;;8.88;96.31;100147.47;5048298;28;20027;-67
2022/11/04 02:53:51;;;;;;;8.90;4.60;;;;;;;8.86;96.53;100141.44;5042420;28;20017;-67
2022/11/04 02:56:20;;;;;;;7.78;4.05;;;;;;;8.82;96.48;100145.25;5045273;28;20396;-67
2022/11/04 02:58:56;;;;;;;9.02;4.57;;;;;;;8.83;96.36;100146.97;5054704;28;20513;-68
2022/11/04 03:01:28;;;;;;;8.40;4.53;;;;;;;8.78;96.31;100149.91;5034128;28;20033;-67
2022/11/04 03:04:00;;;;;;;8.25;4.57;;;;;;;8.76;96.06;100141.19;5052994;28;20044;-67
2022/11/04 03:06:30;;;;;;;5.13;4.10;;;;;;;8.75;96.24;100143.97;5035969;28;20452;-67
2022/11/04 03:08:58;;;;;;;7.70;3.90;;;;;;;8.74;95.98;100143.13;5038275;28;20392;-68
2022/11/04 03:11:26;;;;;;;8.68;4.10;;;;;;;8.73;96.20;100144.06;5047905;28;20665;-67
2022/11/04 03:13:58;;;;;;;10.63;5.25;;;;;;;8.67;96.25;100152.41;5047089;28;20392;-67
2022/11/04 03:17:05;;;;;;;6.03;4.00;;;;;;;8.73;96.14;100152.00;5035163;28;20032;-68
2022/11/04 03:19:48;;;;;;;10.40;4.25;;;;;;;8.61;96.25;100153.69;5049898;28;20056;-67
2022/11/04 03:22:20;;;;;;;9.48;4.15;;;;;;;8.60;96.38;100157.28;5051259;28;20041;-67
2022/11/04 03:24:47;;;;;;;11.10;3.95;;;;;;;8.59;96.20;100150.28;5045178;28;20033;-67
2022/11/04 03:27:23;;;;;;;7.50;3.70;;;;;;;8.55;96.33;100155.88;5033921;28;20049;-67
2022/11/04 03:29:58;;;;;;;6.28;3.42;;;;;;;8.57;96.30;100154.84;5046931;28;20037;-67
2022/11/04 03:32:42;;;;;;;5.97;3.63;;;;;;;8.55;96.08;100156.72;5032871;28;20388;-67
2022/11/04 03:35:08;;;;;;;8.93;4.03;;;;;;;8.55;95.90;100164.69;5043754;28;20029;-67
2022/11/04 03:37:34;;;;;;;5.28;3.38;;;;;;;8.53;95.74;100160.44;5047160;28;20099;-67
2022/11/04 03:40:00;;;;;;;7.05;3.42;;;;;;;8.52;95.94;100162.22;5057457;28;20487;-67
2022/11/04 03:42:26;;;;;;;11.95;4.18;;;;;;;8.50;95.64;100157.97;5061379;28;20033;-67
2022/11/04 03:44:57;;;;;;;9.50;3.80;;;;;;;8.48;95.72;100165.19;5051340;28;20036;-67
2022/11/04 03:47:25;;;;;;;13.60;4.10;;;;;;;8.45;95.92;100158.31;5050791;28;20048;-67
2022/11/04 03:49:58;;;;;;;9.90;3.78;;;;;;;8.45;95.67;100163.59;5045636;28;20036;-67
2022/11/04 03:52:23;;;;;;;7.38;3.75;;;;;;;8.46;95.68;100162.63;5042405;28;20082;-67
2022/11/04 03:54:49;;;;;;;10.25;3.47;;;;;;;8.48;95.90;100160.75;5036868;28;20025;-67
2022/11/04 03:57:55;;;;;;;9.50;3.90;;;;;;;8.50;95.79;100156.22;5019328;28;20052;-67
2022/11/04 04:00:23;;;;;;;8.38;3.83;;;;;;;8.39;95.41;100159.53;5041611;28;20383;-68
2022/11/04 04:03:14;;;;;;;7.60;3.60;;;;;;;8.39;95.62;100162.19;5053584;28;20029;-67
2022/11/04 04:05:43;;;;;;;9.52;3.67;;;;;;;8.39;94.97;100161.34;5038277;28;20091;-67
2022/11/04 04:08:45;;;;;;;8.82;4.30;;;;;;;8.45;95.45;100158.31;5035670;28;20043;-67
2022/11/04 04:11:44;;;;;;;7.55;3.88;;;;;;;8.39;94.97;100156.91;5046171;28;20403;-67
2022/11/04 04:14:40;;;;;;;12.63;4.10;;;;;;;8.40;95.48;100163.03;5034792;28;20061;-67
2022/11/04 04:17:18;;;;;;;10.73;3.88;;;;;;;8.37;95.17;100160.56;5033137;28;20039;-67
2022/11/04 04:19:50;;;;;;;13.55;3.78;;;;;;;8.31;95.42;100169.75;5034114;28;20036;-67
2022/11/04 04:22:21;;;;;;;11.43;3.65;;;;;;;8.32;95.27;100171.44;5032647;28;20045;-67
2022/11/04 04:27:35;;;;;;;10.15;3.53;;;;;;;8.29;95.08;100170.78;5038500;28;20064;-67
2022/11/04 04:30:08;;;;;;;8.48;4.03;;;;;;;8.28;95.11;100180.53;5032410;28;20060;-67
2022/11/04 04:32:39;;;;;;;8.38;3.70;;;;;;;8.27;95.01;100178.84;5030955;28;20022;-67
2022/11/04 04:37:54;;;;;;;10.15;4.53;;;;;;;8.24;95.43;100189.66;5033951;28;20095;-67
2022/11/04 04:45:59;;;;;;;10.43;4.70;;;;;;;8.15;95.14;100182.31;5043397;28;20056;-67
2022/11/04 04:48:25;;;;;;;9.18;4.97;;;;;;;8.13;94.06;100187.69;5038679;28;20399;-67
2022/11/04 04:50:55;;;;;;;9.18;4.68;;;;;;;8.14;94.98;100191.16;5034508;28;20050;-67
2022/11/04 04:53:21;;;;;;;8.98;4.72;;;;;;;8.18;95.09;100198.84;5032030;28;20108;-67
2022/11/04 04:55:46;;;;;;;10.82;5.15;;;;;;;8.15;94.60;100192.91;5044400;28;20231;-67
2022/11/04 04:58:12;;;;;;;12.70;5.63;;;;;;;8.19;94.65;100195.22;5044018;28;20079;-67
2022/11/04 05:00:39;;;;;;;11.63;4.68;;;;;;;8.20;94.04;100198.72;5038621;28;20033;-67
2022/11/04 05:03:05;;;;;;;5.78;4.72;;;;;;;8.20;93.63;100202.22;5031685;28;20037;-67
2022/11/04 05:05:31;;;;;;;8.93;5.43;;;;;;;8.19;93.23;100207.63;5048587;28;20036;-67
2022/11/04 05:08:04;;;;;;;9.30;5.28;;;;;;;8.11;93.54;100210.75;5052232;28;20468;-67
2022/11/04 05:10:32;;;;;;;11.27;5.65;;;;;;;8.14;93.58;100207.91;5033081;28;20033;-67
2022/11/04 05:15:42;;;;;;;16.95;6.05;;;;;;;8.13;93.33;100208.03;5043229;28;20048;-68
2022/11/04 05:18:10;;;;;;;13.88;6.63;;;;;;;8.14;92.76;100221.16;5032877;28;20037;-67
2022/11/04 05:20:39;;;;;;;11.85;7.32;;;;;;;8.10;93.15;100219.66;5035474;28;20114;-67
2022/11/04 05:23:05;;;;;;;11.27;6.45;;;;;;;8.11;93.43;100220.50;5028778;28;20526;-67
2022/11/04 05:25:32;;;;;;;13.25;6.60;;;;;;;8.04;93.77;100217.41;5038821;28;20037;-67
2022/11/04 05:28:01;;;;;;;12.13;6.60;;;;;;;8.11;93.63;100234.59;5030942;28;20029;-67
2022/11/04 05:30:27;;;;;;;12.85;6.90;;;;;;;8.17;93.76;100226.25;5050051;28;20431;-67
2022/11/04 05:32:54;;;;;;;9.20;6.43;;;;;;;8.12;93.53;100238.13;5030037;28;20037;-67
2022/11/04 05:35:20;;;;;;;13.05;6.65;;;;;;;8.07;93.93;100230.44;5037406;28;20048;-67
2022/11/04 05:37:45;;;;;;;12.30;6.40;;;;;;;8.16;93.77;100239.63;5049675;28;20476;-67
2022/11/04 05:40:13;;;;;;;11.98;7.13;;;;;;;8.13;93.67;100239.81;5047210;28;20111;-67
2022/11/04 05:42:39;;;;;;;15.52;7.30;;;;;;;8.12;93.40;100240.75;5048320;28;20033;-67
2022/11/04 05:45:06;;;;;;;10.05;6.80;;;;;;;8.09;94.17;100243.56;5042321;28;20040;-67
2022/11/04 05:47:31;;;;;;;9.38;6.28;;;;;;;8.15;94.20;100243.22;5036095;28;20032;-67
2022/11/04 05:49:57;;;;;;;13.57;6.65;;;;;;;8.18;94.71;100250.97;5048964;28;20450;-67
2022/11/04 05:52:22;;;;;;;15.63;6.72;;;;;;;8.17;94.87;100250.09;5033487;28;20033;-67
2022/11/04 05:54:50;;;;;;;8.82;6.00;;;;;;;8.17;94.23;100252.75;5037805;28;20030;-67
2022/11/04 05:57:15;;;;;;;11.73;6.10;;;;;;;8.12;93.99;100246.06;5041034;28;20029;-67
2022/11/04 05:59:45;;;;;;;13.85;6.97;;;;;;;8.08;93.89;100255.13;5044548;28;20029;-67
2022/11/04 06:02:13;;;;;;;;;;;;;;;8.25;93.61;100259.38;5030118;28;20061;-68
2022/11/04 06:04:38;;;;;;;11.38;6.20;;;;;;;8.06;94.01;100262.31;5033609;28;20343;-67
2022/11/04 06:07:04;;;;;;;11.20;6.38;;;;;;;8.11;93.76;100262.88;5037240;28;20128;-67
2022/11/04 06:09:37;;;;;;;10.45;5.57;;;;;;;8.11;93.63;100261.06;5043019;28;20443;-67
2022/11/04 06:12:08;;;;;;;6.82;5.40;;;;;;;8.10;93.35;100269.13;5031137;28;20519;-67
2022/11/04 06:14:34;;;;;;;10.40;6.00;;;;;;;8.10;93.41;100269.97;5033521;28;20476;-67
2022/11/04 06:16:59;;;;;;;9.60;5.80;;;;;;;8.11;93.68;100266.38;5022035;28;20029;-67
2022/11/04 06:19:27;;;;;;;7.43;5.32;;;;;;;8.06;93.79;100273.78;5036255;28;20029;-67
2022/11/04 06:21:53;;;;;;;11.80;5.80;;;;;;;8.03;93.68;100276.63;5050093;28;20401;-67
2022/11/04 06:24:18;;;;;;;10.32;5.55;;;;;;;8.08;93.46;100274.50;5033632;28;20095;-67
2022/11/04 06:26:44;;;;;;;11.93;5.55;;;;;;;8.03;94.02;100281.03;5033786;28;20029;-67
2022/11/04 06:29:10;;;;;;;12.23;5.40;;;;;;;8.03;93.60;100275.75;5030675;28;20025;-68
2022/11/04 06:31:35;;;;;;;6.97;5.38;;;;;;;7.94;93.81;100279.81;5044025;28;20048;-67
2022/11/04 06:34:01;;;;;;;11.57;5.90;;;;;;;7.97;93.43;100284.91;5048214;28;20037;-67
2022/11/04 06:36:26;;;;;;;12.13;5.93;;;;;;;7.90;92.90;100283.59;5033641;28;20102;-68
2022/11/04 06:38:52;;;;;;;9.13;5.25;;;;;;;7.71;92.76;100260.06;5016839;28;20072;-67
2022/11/04 06:41:17;;;;;;;9.63;5.47;;;;;;;7.88;92.87;100294.28;5034513;28;20052;-67
2022/11/04 06:43:45;;;;;;;10.50;5.28;;;;;;;7.81;92.21;100303.53;5035143;28;20380;-67
2022/11/04 06:46:33;;;;;;;8.52;5.20;;;;;;;7.84;92.66;100297.22;5042758;28;20033;-67
2022/11/04 06:48:58;;;;;;;10.63;5.28;;;;;;;7.79;92.75;100292.19;5039566;28;20033;-67
2022/11/04 06:51:24;;;;;;;8.35;5.18;;;;;;;7.77;92.76;100291.44;5048525;28;20033;-67
2022/11/04 06:53:50;;;;;;;12.90;5.97;;;;;;;7.78;93.09;100298.44;5034216;28;20026;-67
2022/11/04 06:56:16;;;;;;;6.35;5.35;;;;;;;7.76;93.14;100302.94;5027088;28;20122;-67
2022/11/04 06:58:42;;;;;;;10.13;6.05;;;;;;;7.82;92.98;100312.31;5036333;28;20573;-67
2022/11/04 07:01:07;;;;;;;12.35;5.60;;;;;;;7.81;93.69;100315.91;5033344;28;20086;-67
2022/11/04 07:03:33;;;;;;;12.60;5.55;;;;;;;7.77;93.74;100317.06;5034513;28;20042;-67
2022/11/04 07:06:04;;;;;;;10.30;5.53;;;;;;;7.85;93.56;100309.50;5033318;28;20384;-67
2022/11/04 07:08:30;;;;;;;10.00;5.32;;;;;;;7.84;94.12;100311.28;5033517;28;20199;-67
2022/11/04 07:10:55;;;;;;;11.50;5.88;;;;;;;7.93;94.32;100325.78;5037735;28;20519;-67
2022/11/04 07:13:23;;;;;;;12.27;6.15;;;;;;;7.95;94.29;100326.53;5050313;28;20033;-67
2022/11/04 07:15:48;;;;;;;12.95;6.13;;;;;;;8.05;95.56;100327.66;5005539;28;20037;-67
2022/11/04 07:18:14;;;;;;;10.73;6.45;;;;;;;8.05;95.71;100330.31;5043690;28;20044;-67
2022/11/04 07:20:40;;;;;;;12.63;6.47;;;;;;;8.10;95.79;100333.53;5026682;28;20029;-67
2022/11/04 07:23:05;;;;;;;10.45;5.97;;;;;;;8.11;95.75;100337.03;5033960;28;20049;-68
2022/11/04 07:25:31;;;;;;;11.63;6.03;;;;;;;8.24;96.35;100338.00;5033548;28;20033;-68
2022/11/04 07:27:59;;;;;;;11.90;7.22;;;;;;;8.30;96.56;100339.44;5033455;28;20395;-68
2022/11/04 07:30:25;;;;;;;11.40;6.68;;;;;;;8.33;96.47;100333.94;5036423;28;20064;-68
2022/11/04 07:32:51;;;;;;;8.90;6.55;;;;;;;8.37;96.17;100333.63;5053715;28;20480;-67
2022/11/04 07:35:17;;;;;;;16.60;6.88;;;;;;;8.43;96.28;100329.78;5053783;28;20039;-68
2022/11/04 07:37:42;;;;;;;9.85;6.20;;;;;;;8.54;96.67;100345.88;5053293;28;20622;-68
2022/11/04 07:40:11;;;;;;;13.30;6.50;;;;;;;8.53;96.40;100346.81;5044232;28;20112;-67
2022/11/04 07:42:42;;;;;;;10.27;5.90;;;;;;;8.58;96.66;100351.81;5016415;28;20029;-68
2022/11/04 07:45:10;;;;;;;14.32;6.35;;;;;;;8.59;96.44;100353.56;5049732;28;20021;-67
2022/11/04 07:47:35;;;;;;;13.50;6.50;;;;;;;8.62;96.41;100359.50;5036091;28;20036;-68
2022/11/04 07:50:00;;;;;;;11.48;6.20;;;;;;;8.60;96.36;100344.63;5049402;28;20400;-67
2022/11/04 07:52:26;;;;;;;11.00;5.70;;;;;;;8.72;96.65;100356.25;5033151;28;20045;-68
2022/11/04 07:54:52;;;;;;;12.20;6.07;;;;;;;8.77;96.53;100362.97;5032913;28;20480;-68
2022/11/04 07:57:17;;;;;;;15.82;5.97;;;;;;;8.83;96.62;100359.09;5033817;28;20499;-68
2022/11/04 07:59:45;;;;;;;12.55;6.18;;;;;;;8.81;96.20;100367.13;5038074;28;20021;-68
2022/11/04 08:02:10;;;;;;;11.40;5.85;;;;;;;8.86;97.21;100364.19;5053245;28;20025;-68
2022/11/04 08:04:36;;;;;;;14.05;6.97;;;;;;;8.88;97.21;100370.25;5053173;28;20460;-68
2022/11/04 08:07:02;;;;;;;13.05;6.22;;;;;;;8.89;97.60;100369.31;5034986;28;20037;-68
2022/11/04 08:09:27;;;;;;;15.68;7.03;;;;;;;8.95;98.30;100368.06;5050996;28;20047;-68
2022/11/04 08:11:55;;;;;;;16.75;6.45;;;;;;;8.96;97.73;100375.06;5050915;28;20032;-68
2022/11/04 08:14:23;;;;;;;13.93;6.20;;;;;;;8.99;96.97;100372.22;5042486;28;20520;-68
2022/11/04 08:16:50;;;;;;;15.07;6.20;;;;;;;9.02;97.00;100380.81;5031916;28;20037;-67
2022/11/04 08:19:15;;;;;;;12.43;6.20;;;;;;;9.05;97.04;100383.28;5032895;28;20106;-68
2022/11/04 08:21:43;;;;;;;12.70;6.15;;;;;;;9.14;96.87;100389.78;5051358;28;20029;-68
2022/11/04 08:24:09;;;;;;;12.27;6.18;;;;;;;9.16;96.35;100390.56;5052935;28;20405;-67
2022/11/04 08:26:37;;;;;;;13.45;6.63;;;;;;;9.15;95.95;100394.16;5052488;28;20071;-68
2022/11/04 08:29:06;;;;;;;13.23;6.75;;;;;;;9.17;95.77;100397.56;5035559;28;20127;-67
2022/11/04 08:31:32;;;;;;;15.82;7.28;;;;;;;9.20;95.14;100402.66;5033707;28;20080;-68
2022/11/04 08:33:58;;;;;;;14.18;6.63;;;;;;;9.19;95.98;100408.91;5040354;28;20021;-67
2022/11/04 08:36:26;;;;;;;17.98;8.00;;;;;;;9.18;96.03;100404.59;5052411;28;20025;-67
2022/11/04 08:38:53;;;;;;;16.23;7.50;;;;;;;9.19;97.01;100411.56;5052598;28;20075;-67
2022/11/04 08:41:23;;;;;;;14.77;7.00;;;;;;;9.25;96.43;100419.13;5048973;28;20032;-66
2022/11/04 08:43:51;;;;;;;15.07;7.38;;;;;;;9.25;95.98;100413.84;5046890;28;20021;-68
2022/11/04 08:46:18;;;;;;;16.10;7.68;;;;;;;9.35;97.15;100421.19;5051697;28;20468;-67
2022/11/04 08:48:44;;;;;;;13.57;7.30;;;;;;;9.38;96.48;100416.53;5051067;28;20491;-67
2022/11/04 08:51:16;;;;;;;10.88;6.75;;;;;;;9.42;96.16;100422.53;5049868;28;20155;-67
2022/11/04 08:53:42;;;;;;;18.10;7.28;;;;;;;9.49;95.68;100421.16;5051143;28;20025;-67
2022/11/04 08:56:16;;;;;;;17.15;8.60;;;;;;;9.57;94.94;100431.28;5051255;28;20036;-67
2022/11/04 08:58:42;;;;;;;13.15;6.95;;;;;;;9.61;95.02;100436.28;5051832;28;20134;-67
2022/11/04 09:01:09;;;;;;;12.88;6.70;;;;;;;9.63;94.23;100431.72;5050924;28;20236;-67
2022/11/04 09:03:37;;;;;;;16.92;6.57;;;;;;;9.63;94.25;100437.03;5049680;28;20400;-68
2022/11/04 09:06:04;;;;;;;14.30;6.45;;;;;;;9.65;94.51;100431.63;5051950;28;20037;-67
2022/11/04 09:08:29;;;;;;;15.52;6.68;;;;;;;9.70;94.61;100440.97;5050814;28;20027;-67
2022/11/04 09:10:55;;;;;;;18.30;6.78;;;;;;;9.77;94.09;100449.41;5033692;28;20024;-67
2022/11/04 09:13:21;;;;;;;12.43;6.00;;;;;;;9.78;93.73;100454.59;5050644;28;20472;-67
2022/11/04 09:15:47;;;;;;;17.40;6.22;;;;;;;9.87;93.88;100460.25;5051664;28;20033;-68
2022/11/04 09:18:13;;;;;;;14.73;7.07;;;;;;;9.96;93.42;100455.19;5051659;28;20111;-68
2022/11/04 09:20:41;;;;;;;12.75;5.95;;;;;;;9.97;93.04;100456.03;5051537;28;20108;-67
2022/11/04 09:23:07;;;;;;;15.98;6.57;;;;;;;9.99;92.66;100465.59;5050012;28;20049;-67
2022/11/04 09:25:34;;;;;;;12.70;6.03;;;;;;;9.99;93.11;100459.44;5051225;28;20701;-68
2022/11/04 09:27:59;;;;;;;17.30;6.22;;;;;;;10.06;93.41;100466.06;5051954;28;20025;-68
2022/11/04 09:30:27;;;;;;;15.80;7.10;;;;;;;10.07;94.42;100466.91;5051470;28;20024;-68
2022/11/04 09:32:53;;;;;;;11.90;6.18;;;;;;;10.07;93.86;100461.59;5043556;28;20021;-68
2022/11/04 09:35:21;;;;;;;16.58;6.35;;;;;;;10.12;94.22;100472.78;5038129;28;20024;-68
2022/11/04 09:37:46;;;;;;;19.02;7.47;;;;;;;10.12;94.26;100484.25;5050129;28;20024;-68
2022/11/04 09:40:24;;;;;;;15.95;6.88;;;;;;;10.13;93.43;100479.78;5050886;28;20397;-68
2022/11/04 09:42:59;;;;;;;15.45;6.30;;;;;;;10.21;93.67;100496.06;5032949;28;20029;-68
2022/11/04 09:45:28;;;;;;;15.57;7.65;;;;;;;10.17;94.00;100494.56;5032458;28;20017;-68
2022/11/04 09:48:01;;;;;;;11.37;6.40;;;;;;;10.18;93.61;100505.09;5030134;28;20091;-67
2022/11/04 09:50:43;;;;;;;16.33;6.82;;;;;;;10.22;94.91;100498.59;5031260;28;20032;-68
2022/11/04 09:53:25;;;;;;;18.63;6.93;;;;;;;10.27;94.68;100503.66;5031572;28;20052;-68
2022/11/04 09:55:53;;;;;;;15.65;6.57;;;;;;;10.29;93.87;100507.03;5032140;28;20369;-68
2022/11/04 09:58:19;;;;;;;8.55;6.20;;;;;;;10.37;94.13;100506.53;5031619;28;20469;-68
2022/11/04 10:00:55;;;;;;;15.05;7.38;;;;;;;10.46;94.64;100509.41;5029672;28;20116;-68
2022/11/04 10:03:42;;;;;;;14.30;6.53;;;;;;;10.55;92.88;100512.41;5031746;28;20087;-67
2022/11/04 10:06:45;;;;;;;17.05;7.00;;;;;;;10.61;92.76;100514.66;5047941;28;20033;-68
2022/11/04 10:09:13;;;;;;;12.80;6.35;;;;;;;10.62;92.14;100519.88;5055574;28;20023;-68
2022/11/04 10:11:59;;;;;;;14.73;6.97;;;;;;;10.66;93.38;100517.84;5038640;28;20024;-68
2022/11/04 10:14:36;;;;;;;13.27;6.47;;;;;;;10.73;93.53;100524.44;5034960;28;20569;-68
2022/11/04 10:17:31;;;;;;;16.50;6.68;;;;;;;10.80;92.36;100524.88;5035228;28;20032;-68
2022/11/04 10:20:24;;;;;;;14.85;6.43;;;;;;;10.96;93.63;100527.31;5033881;28;20038;-68
2022/11/04 10:23:09;;;;;;;13.02;6.60;;;;;;;11.03;91.84;100523.25;5041156;28;20049;-68
2022/11/04 10:25:48;;;;;;;14.45;7.32;;;;;;;11.24;92.69;100527.09;5053372;28;20036;-68
2022/11/04 10:28:18;;;;;;;14.60;7.03;;;;;;;11.24;91.10;100519.09;5055252;28;20361;-68
2022/11/04 10:30:47;;;;;;;13.23;7.20;;;;;;;11.26;90.98;100530.47;5054339;28;20021;-68
2022/11/04 10:33:22;;;;;;;;;;;;;;;11.42;91.68;100532.91;5035301;28;20026;-68
2022/11/04 10:35:58;;;;;;;12.40;7.25;;;;;;;11.36;91.46;100541.34;5034653;28;19999;-68
2022/11/04 10:38:36;;;;;;;16.38;8.35;;;;;;;11.41;92.10;100546.31;5033702;28;20128;-68
2022/11/04 10:41:19;;;;;;;15.48;8.15;;;;;;;11.41;91.29;100554.31;5043682;28;20514;-68
2022/11/04 10:43:47;;;;;;;15.68;7.43;;;;;;;11.42;89.54;100556.88;5053380;28;20021;-68
2022/11/04 10:46:24;;;;;;;18.77;7.82;;;;;;;11.43;91.19;100560.38;5054429;28;20024;-68
2022/11/04 10:49:03;;;;;;;14.95;8.20;;;;;;;11.49;90.40;100565.28;5054616;28;20025;-68
2022/11/04 10:51:29;;;;;;;12.43;8.50;;;;;;;11.57;90.06;100578.91;5053088;28;20032;-68
2022/11/04 10:53:57;;;;;;;16.55;9.65;;;;;;;11.59;87.96;100576.97;5054591;28;20032;-68
2022/11/04 10:56:40;;;;;;;20.13;9.73;;;;;;;11.78;88.37;100576.50;5053767;28;20025;-68
2022/11/04 10:59:41;;;;;;;18.33;9.15;;;;;;;11.85;87.96;100580.44;5054522;28;20021;-68
2022/11/04 11:02:09;;;;;;;14.02;8.88;;;;;;;11.87;86.69;100577.69;5038371;28;20021;-68
2022/11/04 11:04:36;;;;;;;14.60;8.88;;;;;;;11.91;86.09;100566.69;5053244;28;20083;-68
2022/11/04 11:07:04;;;;;;;14.85;9.20;;;;;;;12.05;84.67;100571.00;5053370;28;20037;-68
2022/11/04 11:09:36;;;;;;;14.48;9.35;;;;;;;12.35;85.11;100567.84;5052584;28;20438;-68
2022/11/04 11:12:05;;;;;;;16.67;10.15;;;;;;;12.58;84.36;100570.59;5035726;28;20079;-68
2022/11/04 11:14:36;;;;;;;21.35;9.45;;;;;;;12.99;83.49;100562.09;5050361;28;20025;-68
2022/11/04 11:17:13;;;;;;;18.15;9.45;;;;;;;13.36;82.43;100568.09;5052756;28;20036;-68
2022/11/04 11:20:13;;;;;;;14.23;9.23;;;;;;;13.97;80.56;100570.34;5054095;28;20104;-69
2022/11/04 11:22:44;;;;;;;14.52;8.05;;;;;;;14.01;75.50;100582.47;5052844;28;20056;-68
2022/11/04 11:25:29;;;;;;;18.45;8.50;;;;;;;14.03;75.83;100583.19;5034419;28;20112;-68
2022/11/04 11:28:20;;;;;;;12.05;7.57;;;;;;;14.37;75.37;100583.06;5033570;28;20051;-68
2022/11/04 11:30:45;;;;;;;17.23;8.02;;;;;;;14.76;73.37;100584.28;5033794;28;20017;-69
2022/11/04 11:33:49;;;;;;;21.70;8.38;;;;;;;15.18;75.42;100578.88;5033976;28;20029;-69
2022/11/04 11:36:22;;;;;;;15.15;7.55;;;;;;;15.25;72.40;100565.78;5031547;28;20034;-69
2022/11/04 11:39:11;;;;;;;19.80;7.63;;;;;;;15.49;73.99;100584.22;5033681;28;20455;-64
2022/11/04 11:41:51;;;;;;;29.00;7.47;;;;;;;15.12;71.85;100584.78;5030151;28;20451;-66
2022/11/04 11:44:35;;;;;;;18.33;6.75;;;;;;;14.75;68.96;100582.56;5042383;28;20087;-61
2022/11/04 11:47:17;;;;;;;14.93;7.45;;;;;;;14.61;68.90;100579.34;5053114;28;20120;-60
2022/11/04 11:49:43;;;;;;;17.08;7.72;;;;;;;14.77;69.92;100569.91;5053503;28;20027;-61
2022/11/04 11:52:17;;;;;;;16.13;6.57;;;;;;;14.83;68.57;100575.72;5053472;28;20021;-61
2022/11/04 11:54:48;;;;;;;14.60;7.20;;;;;;;14.89;69.56;100578.72;5048503;28;20475;-61
2022/11/04 11:57:45;;;;;;;15.20;7.40;;;;;;;15.15;70.95;100581.84;5033401;28;20018;-61
2022/11/04 12:00:15;;;;;;;15.98;8.13;;;;;;;15.86;66.68;100595.25;5033688;28;20064;-61
2022/11/04 12:02:50;;;;;;;11.80;6.93;;;;;;;16.31;65.61;100599.28;5033578;28;20034;-61
2022/11/04 12:05:18;;;;;;;10.18;6.25;;;;;;;16.00;65.01;100604.75;5032612;28;20037;-61
2022/11/04 12:07:50;;;;;;;14.40;6.28;;;;;;;15.58;66.98;100607.53;5033390;28;20021;-61
2022/11/04 12:10:32;;;;;;;12.60;6.25;;;;;;;15.16;67.92;100606.78;5031728;28;20033;-61
2022/11/04 12:13:15;;;;;;;12.27;6.05;;;;;;;14.81;69.29;100607.13;5033154;28;20025;-61
2022/11/04 12:16:05;;;;;;;13.32;6.57;;;;;;;14.46;68.86;100609.06;5031983;28;20033;-61
2022/11/04 12:18:49;;;;;;;10.15;5.72;;;;;;;15.02;68.08;100613.31;5046474;28;20484;-61